This is the latest recevied weather packets stored in our database for station/object DL7KST-13. If no packets are shown the sender has not sent any weather packets the latest 10 day(s).
| Time | Temp. | Humidity | Pressure | Rain* | Wind** | Luminosity | Snow |
|---|---|---|---|---|---|---|---|
| 1777429503 | 0.56° C | 72% | 1018.7 hPa | 0 mm | 0.89 m/s, 59° | - | - |
| 1777428298 | 0.56° C | 72% | 1018.7 hPa | 0 mm | 1.34 m/s, 50° | - | - |
| 1777427092 | 0.56° C | 71% | 1018.6 hPa | 0 mm | 0.89 m/s, 103° | - | - |
| 1777425887 | 0.56° C | 73% | 1018.2 hPa | 0 mm | 0.45 m/s, 54° | - | - |
| 1777424682 | 0.56° C | 71% | 1017.8 hPa | 0 mm | 0.45 m/s, 71° | - | - |
| 1777423477 | 1.67° C | 69% | 1018.1 hPa | 0 mm | 0.89 m/s, 59° | - | - |
| 1777422273 | 1.67° C | 69% | 1018.1 hPa | 0 mm | 0.45 m/s, 80° | - | - |
| 1777421067 | 1.67° C | 68% | 1018 hPa | 0 mm | 0.45 m/s, 117° | - | - |
| 1777419863 | 1.67° C | 66% | 1018.1 hPa | 0 mm | 0.45 m/s, 64° | - | - |
| 1777418657 | 2.22° C | 66% | 1018.1 hPa | 0 mm | 0.89 m/s, 162° | - | - |
| 1777417452 | 2.78° C | 65% | 1017.8 hPa | 0 mm | 0 m/s | - | - |
| 1777416247 | 2.78° C | 63% | 1017.6 hPa | 0 mm | 0.45 m/s, 116° | - | - |
| 1777415043 | 2.78° C | 62% | 1017.5 hPa | 0 mm | 0.45 m/s, 60° | - | - |
| 1777413838 | 3.89° C | 60% | 1017.2 hPa | 0 mm | 0 m/s | - | - |
| 1777412633 | 4.44° C | 57% | 1017.2 hPa | 0 mm | 0 m/s | - | - |
| 1777411428 | 4.44° C | 55% | 1017 hPa | 0 mm | 0 m/s | - | - |
| 1777410223 | 5.56° C | 51% | 1017.1 hPa | 0 mm | 0 m/s | - | - |
| 1777409018 | 6.67° C | 47% | 1016.9 hPa | 0 mm | 0.89 m/s, 62° | - | - |
| 1777407812 | 6.67° C | 46% | 1016.7 hPa | 0 mm | 0.45 m/s, 48° | - | - |
| 1777406607 | 7.22° C | 44% | 1016.5 hPa | 0 mm | 0.89 m/s, 38° | - | - |
| 1777405403 | 7.78° C | 43% | 1016.6 hPa | 0 mm | 1.34 m/s, 39° | - | - |
| 1777404198 | 8.33° C | 41% | 1016.3 hPa | 0 mm | 0.45 m/s, 60° | - | - |
| 1777402993 | 8.89° C | 41% | 1016.2 hPa | 0 mm | 0.45 m/s, 58° | - | - |
| 1777401787 | 9.44° C | 39% | 1016.1 hPa | 0 mm | 1.34 m/s, 46° | - | - |
| 1777400582 | 10.56° C | 39% | 1015.7 hPa | 0 mm | 1.34 m/s, 50° | - | - |
* Rain latest hour (hover to see other rain measurements)
** Current wind speed in m/s (hover to see current wind gust speed)